Time;durP1;ratioP1;P1;durP2;ratioP2;P2;SDS_P1;SDS_P2;PMS_P1;PMS_P2;Temp;Humidity;BMP_temperature;BMP_pressure;BME280_temperature;BME280_humidity;BME280_pressure;Samples;Min_cycle;Max_cycle;Signal;HPM_P1;HPM_P2
2023/08/12 00:01:16;;;;;;;;;7.00;5.00;;;;;24.99;51.89;99535.91;5075186;27;45474;-59
2023/08/12 00:03:42;;;;;;;;;5.60;5.60;;;;;24.95;52.37;99536.38;5074802;28;45457;-59
2023/08/12 00:06:07;;;;;;;;;8.50;5.25;;;;;24.90;51.90;99531.34;5074961;28;45439;-58
2023/08/12 00:08:33;;;;;;;;;4.50;4.00;;;;;24.87;52.24;99534.34;5074297;27;45532;-58
2023/08/12 00:10:58;;;;;;;;;6.75;6.25;;;;;24.85;52.24;99533.63;5064184;28;45392;-58
2023/08/12 00:13:24;;;;;;;;;7.25;6.00;;;;;24.86;51.90;99529.06;5073449;28;48034;-58
2023/08/12 00:15:49;;;;;;;;;6.00;6.00;;;;;24.86;52.14;99537.16;5075004;27;45466;-58
2023/08/12 00:18:15;;;;;;;;;6.50;5.50;;;;;24.86;52.42;99539.88;5075052;27;45614;-58
2023/08/12 00:20:42;;;;;;;;;6.50;6.00;;;;;24.83;52.63;99541.00;5074281;28;45478;-58
2023/08/12 00:23:08;;;;;;;;;6.00;6.00;;;;;24.85;52.60;99536.31;5074373;28;45615;-58
2023/08/12 00:25:34;;;;;;;;;6.40;5.80;;;;;24.87;52.80;99538.88;5074363;28;45499;-58
2023/08/12 00:27:59;;;;;;;;;5.00;5.00;;;;;24.86;52.88;99540.72;5075434;28;45489;-58
2023/08/12 00:30:24;;;;;;;;;7.00;5.75;;;;;24.86;52.81;99540.72;5073805;27;45489;-59
2023/08/12 00:32:50;;;;;;;;;6.00;6.00;;;;;24.86;52.57;99531.78;5068992;28;46562;-58
2023/08/12 00:35:15;;;;;;;;;6.50;6.50;;;;;24.86;52.48;99538.03;5074038;27;45364;-59
2023/08/12 00:37:41;;;;;;;;;6.25;5.50;;;;;24.88;52.75;99538.72;5074329;28;45439;-58
2023/08/12 00:40:07;;;;;;;;;5.50;5.50;;;;;24.89;52.97;99547.69;5073999;28;45570;-59
2023/08/12 00:42:32;;;;;;;;;9.75;8.00;;;;;24.84;52.56;99534.59;5074545;28;45393;-58
2023/08/12 00:44:58;;;;;;;;;9.50;8.00;;;;;24.80;52.93;99543.16;5072880;27;45736;-58
2023/08/12 00:47:24;;;;;;;;;9.50;9.50;;;;;24.78;53.18;99547.81;5073891;28;45430;-59
2023/08/12 00:49:50;;;;;;;;;14.50;14.00;;;;;24.75;53.14;99540.00;5073901;28;45444;-58
2023/08/12 00:52:18;;;;;;;;;15.00;12.75;;;;;24.69;53.22;99536.88;5074042;27;45399;-58
2023/08/12 00:54:44;;;;;;;;;23.00;19.00;;;;;24.68;53.62;99537.00;5071941;28;45785;-58
2023/08/12 00:57:09;;;;;;;;;20.50;18.50;;;;;24.66;53.20;99545.25;5074644;28;45577;-58
2023/08/12 00:59:39;;;;;;;;;20.75;19.25;;;;;24.65;54.27;99548.94;5073572;28;45445;-58
2023/08/12 01:02:04;;;;;;;;;10.00;6.00;;;;;24.58;53.55;99547.81;5074384;27;45416;-59
2023/08/12 01:04:30;;;;;;;;;26.50;22.25;;;;;24.53;53.53;99549.19;5073886;28;45506;-58
2023/08/12 01:06:55;;;;;;;;;15.50;13.25;;;;;24.48;53.74;99548.75;5073963;27;45321;-58
2023/08/12 01:09:21;;;;;;;;;9.50;7.50;;;;;24.42;53.77;99549.34;5073467;28;45414;-58
2023/08/12 01:11:49;;;;;;;;;9.00;7.75;;;;;24.34;54.06;99542.78;5071160;28;46481;-59
2023/08/12 01:14:23;;;;;;;;;5.60;5.60;;;;;24.31;53.97;99545.75;5071702;28;45582;-58
2023/08/12 01:16:52;;;;;;;;;7.75;7.75;;;;;24.32;54.01;99541.22;5073769;28;45424;-58
2023/08/12 01:19:34;;;;;;;;;7.00;7.00;;;;;24.33;54.07;99542.91;5072670;28;45463;-58
2023/08/12 01:22:02;;;;;;;;;7.60;7.60;;;;;24.33;54.27;99538.38;5065697;28;45543;-58
2023/08/12 01:24:34;;;;;;;;;6.60;6.40;;;;;24.33;54.49;99538.38;5072765;28;45482;-58
2023/08/12 01:27:00;;;;;;;;;8.25;6.00;;;;;24.32;54.87;99539.38;5073685;28;45471;-59
2023/08/12 01:29:25;;;;;;;;;12.25;10.00;;;;;24.30;54.75;99535.09;5073402;27;45426;-59
2023/08/12 01:32:04;;;;;;;;;7.00;7.00;;;;;24.28;55.11;99542.50;5073334;28;45831;-58
2023/08/12 01:34:46;;;;;;;;;8.20;6.20;;;;;24.25;54.98;99538.25;5073347;28;45521;-58
2023/08/12 01:37:24;;;;;;;;;6.00;5.20;;;;;24.23;55.22;99539.31;5073921;28;45349;-58
2023/08/12 01:39:52;;;;;;;;;5.75;5.75;;;;;24.22;54.75;99537.63;5072892;28;45428;-58
2023/08/12 01:42:19;;;;;;;;;6.20;6.20;;;;;24.20;54.61;99539.59;5073778;28;46187;-58
2023/08/12 01:44:45;;;;;;;;;10.20;5.40;;;;;24.20;54.66;99545.84;5073201;28;45506;-58
2023/08/12 01:47:11;;;;;;;;;8.00;8.00;;;;;24.20;54.66;99539.59;5073352;28;45472;-59
2023/08/12 01:49:37;;;;;;;;;6.75;5.25;;;;;24.16;54.93;99543.53;5072902;28;45501;-59
2023/08/12 01:52:02;;;;;;;;;6.75;6.75;;;;;24.16;55.42;99546.25;5072656;28;45522;-58
2023/08/12 01:54:33;;;;;;;;;7.75;5.25;;;;;24.13;54.78;99539.28;5071629;28;45447;-58
2023/08/12 01:56:59;;;;;;;;;6.80;6.40;;;;;24.13;55.20;99535.75;5069979;28;45466;-58
2023/08/12 01:59:25;;;;;;;;;7.00;7.00;;;;;24.11;54.96;99541.28;5064867;28;45586;-58
2023/08/12 02:01:50;;;;;;;;;6.50;6.25;;;;;24.10;55.30;99544.13;5065691;27;45584;-59
2023/08/12 02:04:15;;;;;;;;;5.25;5.25;;;;;24.08;55.13;99540.69;5071035;28;45401;-58
2023/08/12 02:06:41;;;;;;;;;5.50;5.50;;;;;24.07;55.26;99541.69;5068949;27;45550;-59
2023/08/12 02:09:06;;;;;;;;;6.50;6.25;;;;;24.05;55.05;99544.53;5072531;27;45534;-58
2023/08/12 02:11:32;;;;;;;;;5.00;4.25;;;;;24.05;54.67;99540.97;5071509;28;46365;-58
2023/08/12 02:13:57;;;;;;;;;5.00;5.00;;;;;24.04;54.69;99534.72;5072898;28;45448;-58
2023/08/12 02:16:22;;;;;;;;;5.50;5.50;;;;;24.06;54.98;99532.75;5073411;27;45404;-58
2023/08/12 02:18:48;;;;;;;;;7.25;7.00;;;;;24.05;54.83;99539.13;5072680;28;45438;-58
2023/08/12 02:21:13;;;;;;;;;5.25;5.25;;;;;24.04;55.02;99544.66;5073259;27;45479;-58
2023/08/12 02:23:38;;;;;;;;;7.00;5.00;;;;;24.02;54.77;99534.88;5072634;28;45486;-59
2023/08/12 02:26:04;;;;;;;;;10.75;10.00;;;;;24.00;55.04;99531.44;5073296;28;45503;-59
2023/08/12 02:28:29;;;;;;;;;10.75;9.25;;;;;23.95;55.40;99540.94;5072677;27;45321;-59
2023/08/12 02:30:55;;;;;;;;;10.25;9.25;;;;;23.87;55.89;99532.69;5072926;27;45430;-59
2023/08/12 02:33:20;;;;;;;;;7.00;7.00;;;;;23.83;55.60;99542.00;5073887;27;45375;-59
2023/08/12 02:35:45;;;;;;;;;7.50;6.25;;;;;23.76;55.77;99541.72;5075703;28;45696;-59
2023/08/12 02:38:11;;;;;;;;;7.00;7.00;;;;;23.72;55.04;99539.41;5108877;27;45475;-59
2023/08/12 02:40:36;;;;;;;;;8.25;7.75;;;;;23.70;55.56;99541.38;5071091;28;48483;-59
2023/08/12 02:43:01;;;;;;;;;7.75;6.50;;;;;23.66;55.76;99541.66;5076634;27;45408;-59
2023/08/12 02:45:27;;;;;;;;;6.50;6.50;;;;;23.64;55.95;99540.06;5074405;28;45389;-59
2023/08/12 02:47:52;;;;;;;;;6.25;6.25;;;;;23.62;55.68;99537.53;5076210;28;45478;-59
2023/08/12 02:50:18;;;;;;;;;7.00;5.50;;;;;23.60;55.85;99531.44;5075626;28;45445;-59
2023/08/12 02:52:43;;;;;;;;;7.25;7.00;;;;;23.61;55.50;99541.22;5075981;27;45427;-59
2023/08/12 02:55:08;;;;;;;;;6.00;6.00;;;;;23.61;55.55;99537.69;5073307;27;45593;-59
2023/08/12 02:57:34;;;;;;;;;8.50;7.25;;;;;23.61;55.35;99538.53;5075772;28;45577;-59
2023/08/12 02:59:59;;;;;;;;;7.00;6.50;;;;;23.63;55.84;99532.97;5074547;28;45544;-59
2023/08/12 03:02:24;;;;;;;;;5.50;5.00;;;;;23.62;55.94;99534.84;5075691;28;45487;-59
2023/08/12 03:04:50;;;;;;;;;8.00;7.00;;;;;23.60;56.34;99538.66;5071030;28;45496;-59
2023/08/12 03:07:15;;;;;;;;;8.25;6.75;;;;;23.56;56.09;99538.06;5075418;28;45453;-59
2023/08/12 03:09:41;;;;;;;;;7.75;7.75;;;;;23.55;56.48;99539.06;5074525;27;46273;-59
2023/08/12 03:12:07;;;;;;;;;7.00;7.00;;;;;23.57;56.42;99536.22;5075200;27;45420;-59
2023/08/12 03:14:32;;;;;;;;;6.50;6.50;;;;;23.57;56.89;99539.78;5074782;28;45451;-59
2023/08/12 03:16:57;;;;;;;;;8.50;8.00;;;;;23.59;57.09;99534.25;5075802;28;45348;-59
2023/08/12 03:19:23;;;;;;;;;6.75;6.75;;;;;23.59;57.08;99536.94;5074373;27;45608;-59
2023/08/12 03:21:48;;;;;;;;;8.00;7.00;;;;;23.60;57.01;99530.59;5067900;28;45399;-59
2023/08/12 03:24:14;;;;;;;;;7.00;7.00;;;;;23.59;57.21;99529.72;5073967;27;45386;-59
2023/08/12 03:26:39;;;;;;;;;6.50;5.75;;;;;23.60;57.08;99535.97;5074849;27;45362;-59
2023/08/12 03:29:04;;;;;;;;;5.00;5.00;;;;;23.59;57.15;99532.41;5074946;28;45599;-59
2023/08/12 03:31:30;;;;;;;;;6.75;5.50;;;;;23.61;57.47;99540.38;5074803;28;45620;-59
2023/08/12 03:33:55;;;;;;;;;7.00;5.75;;;;;23.60;57.25;99538.66;5074347;27;45346;-59
2023/08/12 03:36:20;;;;;;;;;7.00;7.00;;;;;23.59;57.22;99531.56;5074730;27;45392;-59
2023/08/12 03:38:46;;;;;;;;;6.50;6.00;;;;;23.57;57.72;99530.84;5073738;27;46522;-58
2023/08/12 03:41:11;;;;;;;;;7.25;5.25;;;;;23.53;57.58;99534.78;5075094;27;45380;-57
2023/08/12 03:43:37;;;;;;;;;5.00;5.00;;;;;23.49;57.70;99533.31;5074254;28;45651;-57
2023/08/12 03:46:03;;;;;;;;;6.00;6.00;;;;;23.45;57.70;99532.75;5074743;27;45618;-57
2023/08/12 03:48:28;;;;;;;;;5.25;5.25;;;;;23.43;57.54;99540.09;5074084;28;45415;-57
2023/08/12 03:50:53;;;;;;;;;7.25;7.25;;;;;23.39;58.29;99533.25;5073975;27;45762;-57
2023/08/12 03:53:19;;;;;;;;;6.75;6.75;;;;;23.35;58.11;99526.44;5075380;28;45497;-57
2023/08/12 03:55:44;;;;;;;;;7.75;6.75;;;;;23.35;57.98;99531.81;5074544;28;45404;-57
2023/08/12 03:58:10;;;;;;;;;6.25;5.75;;;;;23.34;57.94;99524.72;5074958;27;46345;-57
2023/08/12 04:00:40;;;;;;;;;7.00;7.00;;;;;23.34;58.28;99532.78;5074534;27;45627;-57
2023/08/12 04:03:06;;;;;;;;;8.00;7.80;;;;;23.33;58.10;99526.56;5075496;28;45462;-58
2023/08/12 04:05:31;;;;;;;;;10.25;7.00;;;;;23.34;58.45;99532.78;5073165;28;45548;-57
2023/08/12 04:07:57;;;;;;;;;8.00;6.50;;;;;23.33;58.22;99526.56;5074572;27;45504;-57
2023/08/12 04:10:22;;;;;;;;;7.00;7.00;;;;;23.33;58.78;99529.25;5073902;28;45463;-57
2023/08/12 04:12:47;;;;;;;;;9.00;9.00;;;;;23.34;58.60;99522.03;5075287;28;45772;-59
2023/08/12 04:15:13;;;;;;;;;7.00;7.00;;;;;23.35;58.45;99528.28;5074470;28;45551;-58
2023/08/12 04:17:40;;;;;;;;;9.00;9.00;;;;;23.36;58.43;99521.91;5072973;28;46680;-58
2023/08/12 04:20:07;;;;;;;;;5.40;5.40;;;;;23.37;58.61;99520.91;5073754;28;45506;-58
2023/08/12 04:22:32;;;;;;;;;6.50;6.50;;;;;23.37;58.43;99519.09;5074699;27;45505;-58
2023/08/12 04:24:58;;;;;;;;;8.00;8.00;;;;;23.38;58.71;99528.00;5074108;27;45481;-57
2023/08/12 04:27:23;;;;;;;;;7.00;7.00;;;;;23.37;58.23;99524.47;5074526;28;45752;-57
2023/08/12 04:29:48;;;;;;;;;7.25;5.25;;;;;23.35;58.26;99518.34;5074476;28;45653;-57
2023/08/12 04:32:14;;;;;;;;;8.00;8.00;;;;;23.35;58.31;99520.19;5074873;28;45667;-58
2023/08/12 04:34:39;;;;;;;;;6.25;6.25;;;;;23.32;58.35;99524.84;5073891;28;45504;-58
2023/08/12 04:37:04;;;;;;;;;8.25;7.00;;;;;23.30;58.49;99524.13;5074441;27;45976;-58
2023/08/12 04:39:32;;;;;;;;;7.50;7.00;;;;;23.28;58.58;99519.91;5071724;27;45413;-57
2023/08/12 04:41:57;;;;;;;;;7.00;7.00;;;;;23.27;58.87;99518.19;5074865;28;45661;-57
2023/08/12 04:44:23;;;;;;;;;7.00;6.50;;;;;23.27;58.78;99529.81;5072666;28;45451;-58
2023/08/12 04:46:48;;;;;;;;;8.25;7.50;;;;;23.27;58.90;99521.72;5074073;28;46481;-58
2023/08/12 04:49:13;;;;;;;;;8.25;8.25;;;;;23.27;58.58;99523.56;5073739;28;45431;-58
2023/08/12 04:51:39;;;;;;;;;6.50;4.75;;;;;23.24;58.81;99518.44;5074180;27;45673;-58
2023/08/12 04:54:04;;;;;;;;;7.25;7.25;;;;;23.21;58.92;99516.88;5073465;28;45586;-58
2023/08/12 04:56:30;;;;;;;;;7.25;6.00;;;;;23.22;58.97;99523.09;5073258;28;45883;-58
2023/08/12 04:58:55;;;;;;;;;8.25;8.25;;;;;23.21;59.00;99522.25;5073535;28;45515;-58
2023/08/12 05:01:21;;;;;;;;;9.25;9.00;;;;;23.22;58.82;99523.09;5073840;27;45379;-58
2023/08/12 05:03:46;;;;;;;;;7.50;7.00;;;;;23.21;59.23;99524.94;5073766;27;45448;-58
2023/08/12 05:06:12;;;;;;;;;8.00;8.00;;;;;23.21;58.73;99526.78;5073747;27;45928;-58
2023/08/12 05:08:37;;;;;;;;;7.50;7.50;;;;;23.17;58.82;99528.00;5073100;27;45443;-58
2023/08/12 05:11:03;;;;;;;;;7.25;7.25;;;;;23.15;59.08;99525.44;5074445;27;45360;-58
2023/08/12 05:13:29;;;;;;;;;7.75;7.75;;;;;23.13;59.28;99529.25;5073452;28;45649;-58
2023/08/12 05:15:55;;;;;;;;;9.00;8.00;;;;;23.15;59.23;99524.59;5070969;28;45549;-58
2023/08/12 05:18:23;;;;;;;;;7.50;7.00;;;;;23.16;59.42;99520.91;5073503;28;45406;-60
2023/08/12 05:20:51;;;;;;;;;7.20;7.20;;;;;23.16;58.72;99519.09;5073752;28;45575;-58
2023/08/12 05:23:16;;;;;;;;;10.00;8.75;;;;;23.19;58.76;99509.91;5072989;28;45397;-58
2023/08/12 05:25:42;;;;;;;;;8.00;7.25;;;;;23.24;58.91;99513.06;5068376;28;46533;-58
2023/08/12 05:28:07;;;;;;;;;10.75;7.75;;;;;23.26;58.60;99522.72;5072610;27;45422;-58
2023/08/12 05:30:34;;;;;;;;;8.25;8.25;;;;;23.29;58.68;99521.59;5071823;28;45605;-58
2023/08/12 05:32:59;;;;;;;;;6.25;6.00;;;;;23.33;58.58;99518.50;5074011;28;45830;-58
2023/08/12 05:35:24;;;;;;;;;7.25;7.25;;;;;23.38;58.54;99526.19;5073330;28;45380;-58
2023/08/12 05:37:50;;;;;;;;;8.00;8.00;;;;;23.43;58.45;99523.09;5073221;27;45453;-58
2023/08/12 05:40:15;;;;;;;;;11.50;8.25;;;;;23.49;58.80;99525.22;5073588;28;45369;-58
2023/08/12 05:42:41;;;;;;;;;10.00;7.75;;;;;23.53;59.24;99529.41;5073660;28;45354;-58
2023/08/12 05:45:07;;;;;;;;;12.25;10.00;;;;;23.58;58.96;99538.78;5068330;28;46308;-58
2023/08/12 05:47:32;;;;;;;;;7.80;7.80;;;;;23.64;59.26;99534.69;5056646;28;45460;-58
2023/08/12 05:49:58;;;;;;;;;10.25;10.25;;;;;23.68;59.12;99538.81;5062939;28;45634;-58
2023/08/12 05:52:23;;;;;;;;;7.75;7.75;;;;;23.75;59.00;99539.16;5065374;28;45557;-58
2023/08/12 05:54:48;;;;;;;;;8.00;8.00;;;;;23.83;58.65;99542.00;5069071;28;45502;-58
2023/08/12 05:57:14;;;;;;;;;7.75;7.50;;;;;23.88;58.60;99546.00;5073356;27;45435;-58
2023/08/12 05:59:39;;;;;;;;;9.50;7.75;;;;;23.94;58.87;99534.72;5070249;28;45854;-58
2023/08/12 06:02:06;;;;;;;;;9.00;9.00;;;;;24.00;58.45;99533.28;5072914;27;45483;-58
2023/08/12 06:04:31;;;;;;;;;8.00;7.40;;;;;24.05;58.37;99541.81;5064330;27;45576;-58
2023/08/12 06:06:57;;;;;;;;;7.25;6.25;;;;;24.11;58.49;99540.44;5066956;28;45379;-58
2023/08/12 06:09:22;;;;;;;;;7.00;7.00;;;;;24.15;58.03;99542.69;5063068;28;45851;-58
2023/08/12 06:11:47;;;;;;;;;8.00;7.25;;;;;24.20;58.26;99542.28;5068069;28;45428;-58
2023/08/12 06:14:13;;;;;;;;;8.75;8.00;;;;;24.24;58.02;99543.75;5069542;28;46186;-58
2023/08/12 06:16:38;;;;;;;;;7.50;7.50;;;;;24.28;57.83;99543.34;5072755;27;45452;-58
2023/08/12 06:19:04;;;;;;;;;10.00;10.00;;;;;24.34;58.12;99540.09;5067845;28;45581;-58
2023/08/12 06:21:29;;;;;;;;;11.00;10.00;;;;;24.40;57.84;99543.22;5063469;28;45382;-58
2023/08/12 06:23:55;;;;;;;;;8.00;8.00;;;;;24.44;57.94;99544.66;5061012;27;46551;-58
2023/08/12 06:26:21;;;;;;;;;7.20;7.20;;;;;24.49;57.75;99550.47;5088240;27;45450;-58
2023/08/12 06:28:46;;;;;;;;;8.25;8.00;;;;;24.54;57.57;99559.00;5071491;28;45495;-58
2023/08/12 06:31:11;;;;;;;;;8.25;7.25;;;;;24.56;57.14;99551.63;5073090;28;45511;-58
2023/08/12 06:33:37;;;;;;;;;10.75;10.00;;;;;24.58;57.19;99555.91;5069196;28;45791;-59
2023/08/12 06:36:02;;;;;;;;;7.75;7.75;;;;;24.59;56.95;99552.22;5085454;27;45473;-59
2023/08/12 06:38:28;;;;;;;;;10.25;9.25;;;;;24.59;57.24;99557.59;5067499;28;45510;-59
2023/08/12 06:40:54;;;;;;;;;9.00;8.00;;;;;24.61;57.33;99557.47;5068230;28;45678;-58
2023/08/12 06:43:20;;;;;;;;;8.20;8.20;;;;;24.61;57.16;99555.63;5058910;28;45499;-57
2023/08/12 06:45:45;;;;;;;;;10.00;9.00;;;;;24.62;57.27;99551.09;5070538;28;45561;-57
2023/08/12 06:48:11;;;;;;;;;10.50;9.25;;;;;24.62;57.22;99556.47;5105599;27;45508;-57
2023/08/12 06:50:36;;;;;;;;;10.75;8.25;;;;;24.62;57.41;99553.78;5070563;28;45723;-58
2023/08/12 06:53:02;;;;;;;;;11.75;9.00;;;;;24.60;57.60;99558.44;5100895;27;46295;-57
2023/08/12 06:55:27;;;;;;;;;8.00;8.00;;;;;24.57;57.74;99561.41;5070303;27;45534;-57
2023/08/12 06:57:52;;;;;;;;;9.25;8.25;;;;;24.50;57.50;99560.25;5071817;28;45979;-58
2023/08/12 07:00:18;;;;;;;;;8.25;7.25;;;;;24.43;58.07;99554.59;5059262;28;45497;-58
2023/08/12 07:02:43;;;;;;;;;8.00;8.00;;;;;24.39;58.01;99558.53;5057704;27;45684;-58
2023/08/12 07:05:09;;;;;;;;;9.75;9.00;;;;;24.38;58.35;99562.22;5068987;27;45595;-57
2023/08/12 07:07:35;;;;;;;;;9.50;9.25;;;;;24.38;58.12;99559.53;5067408;28;45564;-58
2023/08/12 07:10:00;;;;;;;;;9.75;9.75;;;;;24.39;58.21;99555.84;5072515;27;45512;-57
2023/08/12 07:12:26;;;;;;;;;10.50;8.00;;;;;24.42;58.02;99555.59;5070067;28;46585;-57
2023/08/12 07:14:51;;;;;;;;;10.75;8.00;;;;;24.45;58.62;99551.75;5071015;28;45503;-57
2023/08/12 07:17:17;;;;;;;;;9.50;9.25;;;;;24.51;58.14;99554.72;5071086;27;45625;-57
2023/08/12 07:19:42;;;;;;;;;9.00;9.00;;;;;24.54;57.78;99550.91;5063749;28;45470;-57
2023/08/12 07:22:08;;;;;;;;;5.00;4.50;;;;;24.55;57.50;99556.16;5069698;28;45803;-57
2023/08/12 07:24:33;;;;;;;;;10.50;9.00;;;;;24.54;57.43;99556.31;5070316;28;45792;-58
2023/08/12 07:26:58;;;;;;;;;8.75;8.75;;;;;24.56;57.85;99557.03;5071679;27;45487;-58
2023/08/12 07:29:24;;;;;;;;;9.25;9.25;;;;;24.58;58.00;99563.13;5067260;28;45543;-57
2023/08/12 07:31:49;;;;;;;;;8.00;8.00;;;;;24.58;58.31;99561.28;5069937;27;45494;-58
2023/08/12 07:34:15;;;;;;;;;9.00;9.00;;;;;24.62;58.32;99561.88;5062649;28;45717;-57
2023/08/12 07:36:40;;;;;;;;;9.00;8.00;;;;;24.66;58.35;99556.03;5071429;27;45518;-57
2023/08/12 07:39:06;;;;;;;;;9.00;9.00;;;;;24.67;58.23;99560.44;5069208;27;45499;-57
2023/08/12 07:41:32;;;;;;;;;12.50;10.25;;;;;24.72;57.97;99556.47;5071118;28;46407;-57
2023/08/12 07:43:57;;;;;;;;;10.00;9.00;;;;;24.80;57.33;99559.31;5069822;28;45843;-58
2023/08/12 07:46:23;;;;;;;;;10.50;10.50;;;;;24.89;57.36;99550.38;5068999;28;45474;-58
2023/08/12 07:48:49;;;;;;;;;10.25;9.00;;;;;24.98;56.43;99553.09;5067688;28;45626;-63
2023/08/12 07:51:14;;;;;;;;;11.50;10.75;;;;;25.07;56.48;99551.41;5071265;27;47832;-62
2023/08/12 07:53:40;;;;;;;;;10.00;10.00;;;;;25.15;56.58;99551.53;5070480;28;45379;-62
2023/08/12 07:56:05;;;;;;;;;11.00;10.00;;;;;25.20;56.52;99556.50;5071712;27;45535;-62
2023/08/12 07:58:31;;;;;;;;;12.50;10.50;;;;;25.25;56.36;99554.22;5070116;28;45554;-63
2023/08/12 08:00:57;;;;;;;;;14.00;11.00;;;;;25.30;56.50;99550.06;5068078;27;45519;-63
2023/08/12 08:03:22;;;;;;;;;11.75;9.00;;;;;25.38;56.51;99549.38;5071335;28;45454;-63
2023/08/12 08:05:48;;;;;;;;;12.75;11.75;;;;;25.46;56.10;99549.50;5075016;27;45552;-64
2023/08/12 08:08:13;;;;;;;;;8.00;8.00;;;;;25.52;55.73;99553.44;5070121;27;45416;-63
2023/08/12 08:10:39;;;;;;;;;13.25;10.25;;;;;25.56;55.92;99552.16;5058397;28;48814;-64
2023/08/12 08:13:04;;;;;;;;;12.75;10.50;;;;;25.61;55.64;99547.19;5084224;27;45494;-63
2023/08/12 08:15:30;;;;;;;;;10.75;9.75;;;;;25.66;55.17;99551.16;5069924;28;45543;-63
2023/08/12 08:17:57;;;;;;;;;13.00;11.50;;;;;25.78;55.09;99564.53;5102674;27;45549;-64
2023/08/12 08:20:23;;;;;;;;;10.00;10.00;;;;;25.84;54.20;99564.75;5069339;28;45630;-63
2023/08/12 08:22:48;;;;;;;;;9.00;9.00;;;;;25.90;53.66;99558.78;5069294;27;45528;-64
2023/08/12 08:25:14;;;;;;;;;11.00;10.00;;;;;25.94;53.83;99568.28;5070768;27;45411;-64
2023/08/12 08:27:41;;;;;;;;;10.25;10.25;;;;;25.94;53.87;99568.28;5069931;27;45429;-64
2023/08/12 08:30:06;;;;;;;;;10.60;9.40;;;;;25.87;54.30;99560.91;5068561;27;47040;-63
2023/08/12 08:32:32;;;;;;;;;8.25;8.25;;;;;25.82;54.20;99555.09;5069704;28;45455;-64
2023/08/12 08:34:57;;;;;;;;;7.50;7.50;;;;;25.80;54.23;99555.28;5067012;28;45617;-63
2023/08/12 08:37:22;;;;;;;;;11.00;10.00;;;;;25.81;54.21;99553.38;5068280;28;45894;-63
2023/08/12 08:39:48;;;;;;;;;13.25;11.50;;;;;25.84;54.50;99551.25;5069824;27;45451;-63
2023/08/12 08:42:15;;;;;;;;;13.75;12.00;;;;;25.90;54.44;99552.53;5070816;27;45595;-65
2023/08/12 08:44:42;;;;;;;;;15.60;13.80;;;;;25.94;53.68;99551.22;5068658;28;45509;-63
2023/08/12 08:47:08;;;;;;;;;17.75;14.25;;;;;25.99;53.50;99555.16;5068557;28;45889;-64
2023/08/12 08:49:36;;;;;;;;;11.25;10.75;;;;;26.04;52.65;99550.19;5070060;28;46258;-63
2023/08/12 08:52:02;;;;;;;;;11.60;11.60;;;;;26.08;53.16;99546.19;5070648;28;45534;-64
2023/08/12 08:54:28;;;;;;;;;11.25;9.50;;;;;26.12;52.79;99546.75;5064848;27;45477;-64
2023/08/12 08:56:54;;;;;;;;;11.50;10.00;;;;;26.13;53.10;99544.88;5068705;27;45486;-63
2023/08/12 08:59:21;;;;;;;;;12.75;11.75;;;;;26.15;53.20;99545.56;5065015;27;45553;-63
2023/08/12 09:01:51;;;;;;;;;10.20;9.80;;;;;26.19;52.80;99539.72;5084657;27;45528;-62
2023/08/12 09:04:17;;;;;;;;;12.40;12.40;;;;;26.23;51.99;99542.97;5065342;27;45532;-63
2023/08/12 09:06:44;;;;;;;;;12.00;12.00;;;;;26.27;52.34;99539.81;5072651;27;45622;-63
2023/08/12 09:09:14;;;;;;;;;12.25;12.25;;;;;26.32;51.94;99540.22;5064188;27;45533;-63
2023/08/12 09:11:40;;;;;;;;;15.00;12.20;;;;;26.39;51.82;99537.78;5065336;28;45399;-63
2023/08/12 09:14:06;;;;;;;;;9.25;8.00;;;;;26.44;52.17;99534.63;5070432;28;45484;-63
2023/08/12 09:16:31;;;;;;;;;10.25;10.00;;;;;26.50;52.02;99532.16;5073273;27;45417;-63
2023/08/12 09:18:58;;;;;;;;;10.50;10.50;;;;;26.57;51.05;99535.97;5072286;27;45350;-63
2023/08/12 09:21:23;;;;;;;;;9.40;8.80;;;;;26.62;50.84;99532.81;5070189;28;45446;-63
2023/08/12 09:23:49;;;;;;;;;9.00;8.75;;;;;26.66;49.33;99528.75;5071186;27;45459;-62
2023/08/12 09:26:20;;;;;;;;;9.50;9.50;;;;;26.72;49.65;99529.00;5071974;27;45482;-62
2023/08/12 09:28:46;;;;;;;;;10.00;10.00;;;;;26.80;49.72;99524.69;5071968;27;45417;-63
2023/08/12 09:31:29;;;;;;;;;10.60;10.60;;;;;26.88;49.04;99527.47;5072726;28;45445;-63
2023/08/12 09:34:03;;;;;;;;;11.75;10.25;;;;;26.95;48.22;99523.19;5078056;27;45402;-63
2023/08/12 09:36:30;;;;;;;;;12.25;12.25;;;;;27.00;49.32;99516.25;5069830;28;45424;-63
2023/08/12 09:38:57;;;;;;;;;10.50;9.00;;;;;27.05;48.91;99516.66;5069325;28;45673;-63
2023/08/12 09:41:24;;;;;;;;;11.20;9.80;;;;;27.09;48.66;99515.34;5071714;28;45394;-63
2023/08/12 09:43:50;;;;;;;;;10.00;10.00;;;;;27.17;48.86;99511.84;5073103;28;45614;-62
2023/08/12 09:46:16;;;;;;;;;10.40;10.40;;;;;27.25;48.95;99508.34;5072488;27;45624;-60
2023/08/12 09:48:41;;;;;;;;;11.25;9.00;;;;;27.34;49.44;99510.94;5069344;28;47978;-60
2023/08/12 09:51:08;;;;;;;;;10.75;10.50;;;;;27.43;48.79;99507.28;5105466;27;45482;-60
2023/08/12 09:53:34;;;;;;;;;11.00;10.60;;;;;27.53;47.67;99504.47;5061680;27;45375;-62
2023/08/12 09:56:11;;;;;;;;;11.00;9.60;;;;;27.67;47.45;99501.19;5069132;28;45459;-63
2023/08/12 09:58:39;;;;;;;;;9.20;8.60;;;;;27.79;47.36;99499.06;5072427;27;47253;-62
2023/08/12 10:01:07;;;;;;;;;9.20;7.60;;;;;27.92;46.73;99496.75;5071663;28;45492;-61
2023/08/12 10:03:33;;;;;;;;;8.00;8.00;;;;;28.04;46.49;99495.44;5071100;28;45532;-62
2023/08/12 10:06:00;;;;;;;;;10.25;10.25;;;;;28.17;46.33;99488.69;5074253;27;45561;-62
2023/08/12 10:08:27;;;;;;;;;7.80;7.80;;;;;28.26;46.08;99488.59;5071113;27;45465;-62
2023/08/12 10:10:53;;;;;;;;;10.60;9.40;;;;;28.34;45.81;99479.63;5072663;28;45514;-62
2023/08/12 10:13:20;;;;;;;;;8.25;8.25;;;;;28.46;46.49;99472.88;5068240;28;45467;-62
2023/08/12 10:15:46;;;;;;;;;11.50;9.50;;;;;28.56;46.43;99476.28;5071373;28;45452;-63
2023/08/12 10:18:13;;;;;;;;;11.25;9.50;;;;;28.67;46.54;99475.94;5072637;28;45581;-61
2023/08/12 10:20:40;;;;;;;;;9.40;8.40;;;;;28.76;46.92;99471.38;5071889;27;45352;-61
2023/08/12 10:23:07;;;;;;;;;9.50;9.50;;;;;28.85;46.62;99477.69;5071406;28;45495;-61
2023/08/12 10:25:35;;;;;;;;;11.25;10.25;;;;;28.92;46.71;99462.44;5071457;27;45460;-63
2023/08/12 10:28:01;;;;;;;;;8.50;8.50;;;;;28.97;46.34;99466.34;5053532;28;46473;-61
2023/08/12 10:30:34;;;;;;;;;10.00;10.00;;;;;29.03;46.12;99453.94;5065869;28;45446;-63
2023/08/12 10:33:00;;;;;;;;;10.20;8.40;;;;;29.10;46.69;99444.94;5072570;27;45563;-62
2023/08/12 10:35:41;;;;;;;;;9.00;9.00;;;;;29.18;45.86;99431.34;5071555;28;45541;-63
2023/08/12 10:38:06;;;;;;;;;11.20;8.80;;;;;29.30;46.33;99433.69;5069310;28;46704;-62
2023/08/12 10:40:32;;;;;;;;;10.75;9.50;;;;;29.41;45.51;99430.63;5071654;28;45419;-62
2023/08/12 10:42:57;;;;;;;;;7.75;7.75;;;;;29.51;44.46;99436.72;5072521;28;45396;-61
2023/08/12 10:45:22;;;;;;;;;9.50;9.50;;;;;29.61;44.41;99428.38;5071659;27;45502;-61
2023/08/12 10:47:51;;;;;;;;;7.00;7.00;;;;;29.74;44.50;99428.66;5072258;28;45547;-61
2023/08/12 10:50:22;;;;;;;;;4.80;4.80;;;;;29.85;44.39;99418.22;5071827;27;45545;-61
2023/08/12 10:52:51;;;;;;;;;9.20;9.20;;;;;29.99;43.46;99413.97;5072389;27;45398;-62
2023/08/12 10:55:25;;;;;;;;;8.25;8.00;;;;;30.14;43.40;99408.59;5074614;28;45563;-61
2023/08/12 10:57:53;;;;;;;;;7.00;7.00;;;;;30.25;42.06;99401.91;5081165;27;47384;-62
2023/08/12 11:00:26;;;;;;;;;9.80;7.20;;;;;30.35;42.25;99416.09;5074947;27;45386;-62
2023/08/12 11:02:53;;;;;;;;;9.00;8.40;;;;;30.46;42.31;99394.78;5076010;28;45535;-62
2023/08/12 11:05:19;;;;;;;;;7.00;7.00;;;;;30.59;42.11;99410.50;5073911;28;45429;-61
2023/08/12 11:07:49;;;;;;;;;8.40;7.80;;;;;30.69;41.22;99386.59;5075508;28;45599;-62
2023/08/12 11:10:26;;;;;;;;;10.00;9.40;;;;;30.85;40.74;99388.31;5075286;28;45533;-62
2023/08/12 11:12:51;;;;;;;;;8.60;7.00;;;;;30.98;40.55;99385.84;5074284;28;45490;-61
2023/08/12 11:15:18;;;;;;;;;6.00;6.00;;;;;31.09;39.82;99381.78;5075036;28;45424;-61
2023/08/12 11:17:46;;;;;;;;;7.20;7.20;;;;;31.20;39.24;99382.19;5074522;28;45576;-61
2023/08/12 11:20:13;;;;;;;;;7.00;6.80;;;;;31.31;39.45;99375.47;5063637;28;46293;-62
2023/08/12 11:22:43;;;;;;;;;7.40;6.40;;;;;31.38;38.96;99368.22;5075663;27;45467;-62
2023/08/12 11:25:13;;;;;;;;;9.20;7.60;;;;;31.49;38.47;99384.09;5074260;27;45525;-63